Louisville, KY

11:22 AM EDT on August 22, 2014 (GMT -0400)
Capital City | Change Station
CLOSE
Current Station
Airport
Location: Frankfort,
Elevation: 804 ft
Nearby Weather Stations
Active Advisory: Heat Advisory

Elev 804 ft 38.18 °N, 84.90 °W | Updated 29 minutes ago

Clear
Clear
83 °F
Feels Like 89 °F
N
9
Wind Variable Wind from WSW

Today
High -- | Low -- °F
--% Chance of Precip.
Yesterday
High -- | Low -- °F
Precip. -- in
7:03 AM 8:27 PM
Waning Crescent, 8% visible
Pressure 30.01 in
Visibility 10.0 miles
Clouds Clear
Heat Index 89 °F
Dew Point 73 °F
Humidity 72%
Rainfall 0.00 in
Snow Depth Not available.
UV 6 out of 12
Pollen 9.80 out of 12
Ozone Good
PM2.5 Moderate
Flu Activity Not available.
METAR KFFT 221453Z AUTO 24008KT 10SM CLR 28/23 A3004 RMK AO2 SLP162 T02830228 50004

More Conditions Fewer Conditions

Pressure 30.01 in
Visibility 10.0 miles
Clouds Clear
Heat Index 89 °F
Dew Point 73 °F
Humidity 72%
Rainfall 0.00 in
Snow Depth Not available.
UV 6 out of 12
Pollen 9.80 out of 12
Ozone Good
PM2.5 Moderate
Flu Activity Not available.
METAR KFFT 221453Z AUTO 24008KT 10SM CLR 28/23 A3004 RMK AO2 SLP162 T02830228 50004

More Conditions Fewer Conditions

10-Day Weather Forecast

Almanac

Astronomy

Aug. 22, 2014 Rise Set
Actual Time 7:03 AM EDT 8:27 PM EDT
Civil Twilight 6:36 AM EDT 8:54 PM EDT
Nautical Twilight 6:03 AM EDT 9:27 PM EDT
Astronomical Twilight 5:28 AM EDT 10:02 PM EDT
Moon 4:27 AM EDT 6:34 PM EDT
Length of Visible Light 14h 18m
Length of Day
13h 23m
Tomorrow will be 2m 17s shorter.
Waning Crescent, 8% of the Moon is Illuminated
Today
Waning Crescent
Aug 25
New
Sep 2
First Quarter
Sep 8
Full
Sep 15
Last Quarter

Today's Extremes

State Highs State Lows

Community

WunderPhotos

Upload Photos

1,746,187 photos uploaded!

WunderBlogs® & News

Nearby

Air Quality

  Air Quality AQ Index Pollutant
Yesterday Good
PM10
Yesterday Good
OZONE
Current Moderate
PM2.5
Current Good
OZONE
Friday Moderate
PM2.5
Friday Moderate
OZONE

Snow Depth

Station Depth Elevation
No new snow has been reported.

Earthquake Activity

City Distance Mag. Time & Date
No recent earthquake activity has been reported nearby.
Minimum magnitude displayed is 2.5.

Coastal Water Temperatures

Place Temperature
No Stations Reporting

Nearby Weather Stations